createdAt,value
2017-04-20T03:12:04.440Z,1026.62
2017-04-20T03:13:05.807Z,1026.56
2017-04-20T03:14:07.226Z,1026.60
2017-04-20T03:15:08.649Z,1026.59
2017-04-20T03:16:10.064Z,1026.60
2017-04-20T03:17:11.474Z,1026.64
2017-04-20T03:18:12.900Z,1026.64
2017-04-20T03:19:14.325Z,1026.60
2017-04-20T03:20:15.746Z,1026.61
2017-04-20T03:21:17.158Z,1026.59
2017-04-20T03:22:18.574Z,1026.63
2017-04-20T03:23:19.995Z,1026.55
2017-04-20T03:24:21.416Z,1026.61
2017-04-20T03:25:22.840Z,1026.59
2017-04-20T03:26:24.263Z,1026.63
2017-04-20T03:27:25.681Z,1026.58
2017-04-20T03:28:27.096Z,1026.58
2017-04-20T03:29:28.463Z,1026.58
2017-04-20T03:30:29.882Z,1026.56
2017-04-20T03:31:31.299Z,1026.57
2017-04-20T03:32:32.712Z,1026.58
2017-04-20T03:33:34.131Z,1026.56
2017-04-20T03:34:35.546Z,1026.53
2017-04-20T03:35:36.959Z,1026.60
2017-04-20T03:36:38.375Z,1026.56
2017-04-20T03:37:39.834Z,1026.54
2017-04-20T03:38:41.258Z,1026.56
2017-04-20T03:39:42.681Z,1026.56
2017-04-20T03:40:44.097Z,1026.53
2017-04-20T03:41:45.513Z,1026.60
2017-04-20T03:42:46.931Z,1026.58
2017-04-20T03:43:48.351Z,1026.64
2017-04-20T03:44:49.770Z,1026.61
2017-04-20T03:45:51.177Z,1026.64
2017-04-20T03:46:52.595Z,1026.61
2017-04-20T03:47:54.009Z,1026.63
2017-04-20T03:48:55.433Z,1026.62
2017-04-20T03:49:56.857Z,1026.64
2017-04-20T03:50:58.270Z,1026.63
2017-04-20T03:51:59.685Z,1026.67
2017-04-20T03:53:01.101Z,1026.61
2017-04-20T03:54:02.512Z,1026.62
2017-04-20T03:55:03.925Z,1026.59
2017-04-20T03:56:05.350Z,1026.63
2017-04-20T03:57:06.770Z,1026.59
2017-04-20T03:58:08.191Z,1026.63
2017-04-20T03:59:09.610Z,1026.64
2017-04-20T04:00:11.023Z,1026.60
2017-04-20T04:01:12.444Z,1026.57
2017-04-20T04:02:13.862Z,1026.60
2017-04-20T04:03:15.279Z,1026.61
2017-04-20T04:04:16.701Z,1026.60
2017-04-20T04:05:18.120Z,1026.64
2017-04-20T04:06:19.533Z,1026.61
2017-04-20T04:07:20.948Z,1026.63
2017-04-20T04:08:22.361Z,1026.63
2017-04-20T04:09:23.775Z,1026.63
2017-04-20T04:10:25.191Z,1026.64
2017-04-20T04:11:26.607Z,1026.62
2017-04-20T04:12:28.020Z,1026.60
2017-04-20T04:13:29.455Z,1026.60
2017-04-20T04:14:30.871Z,1026.57
2017-04-20T04:15:32.280Z,1026.63
2017-04-20T04:16:33.705Z,1026.56
2017-04-20T04:17:35.125Z,1026.61
2017-04-20T04:18:36.541Z,1026.57
2017-04-20T04:19:38.005Z,1026.57
2017-04-20T04:20:39.422Z,1026.62
2017-04-20T04:21:40.844Z,1026.62
2017-04-20T04:22:42.266Z,1026.71
2017-04-20T04:23:43.684Z,1026.69
2017-04-20T04:24:45.102Z,1026.70
2017-04-20T04:25:46.524Z,1026.73
2017-04-20T04:26:47.947Z,1026.71
2017-04-20T04:27:49.367Z,1026.71
2017-04-20T04:28:50.782Z,1026.74
2017-04-20T04:29:52.203Z,1026.74
2017-04-20T04:30:53.622Z,1026.71
2017-04-20T04:31:55.038Z,1026.75
2017-04-20T04:32:56.459Z,1026.73
2017-04-20T04:33:57.877Z,1026.77
2017-04-20T04:34:59.294Z,1026.80
2017-04-20T04:36:00.716Z,1026.81
2017-04-20T04:37:02.142Z,1026.77
2017-04-20T04:38:03.567Z,1026.75
2017-04-20T04:39:04.987Z,1026.79
2017-04-20T04:40:06.410Z,1026.81
2017-04-20T04:41:07.827Z,1026.80
2017-04-20T04:42:09.264Z,1026.82
2017-04-20T04:43:10.665Z,1026.80
2017-04-20T04:44:12.083Z,1026.79
2017-04-20T04:45:13.503Z,1026.80
2017-04-20T04:46:14.916Z,1026.85
2017-04-20T04:47:16.337Z,1026.83
2017-04-20T04:48:17.762Z,1026.92
2017-04-20T04:49:19.176Z,1026.93
2017-04-20T04:50:20.605Z,1026.93
2017-04-20T04:51:22.025Z,1026.93
2017-04-20T04:52:23.451Z,1026.95
2017-04-20T04:53:24.859Z,1026.93
2017-04-20T04:54:26.277Z,1026.98
2017-04-20T04:55:27.705Z,1026.90
2017-04-20T04:56:29.127Z,1026.88
2017-04-20T04:57:30.549Z,1026.86
2017-04-20T04:58:32.012Z,1026.79
2017-04-20T04:59:33.446Z,1026.76
2017-04-20T05:00:34.866Z,1026.80
2017-04-20T05:01:36.289Z,1026.81
2017-04-20T05:02:37.770Z,1026.77
2017-04-20T05:03:39.195Z,1026.82
2017-04-20T05:04:40.611Z,1026.81
2017-04-20T05:05:42.099Z,1026.81
2017-04-20T05:06:43.510Z,1026.78
2017-04-20T05:07:44.933Z,1026.76
2017-04-20T05:08:46.364Z,1026.81
2017-04-20T05:09:47.866Z,1026.77
2017-04-20T05:10:49.291Z,1026.78
2017-04-20T05:11:50.705Z,1026.81
2017-04-20T05:12:52.129Z,1026.78
2017-04-20T05:13:53.546Z,1026.83
2017-04-20T05:14:54.967Z,1026.84
2017-04-20T05:15:56.392Z,1026.79
2017-04-20T05:16:57.808Z,1026.79
2017-04-20T05:17:59.223Z,1026.79
2017-04-20T05:19:00.651Z,1026.88
2017-04-20T05:20:02.077Z,1026.85
2017-04-20T05:21:03.496Z,1026.90
2017-04-20T05:22:04.916Z,1026.90
2017-04-20T05:23:06.340Z,1026.92
2017-04-20T05:24:07.763Z,1026.87
2017-04-20T05:25:09.183Z,1026.95
2017-04-20T05:26:10.601Z,1026.91
2017-04-20T05:27:12.026Z,1026.92
2017-04-20T05:28:13.446Z,1026.93
2017-04-20T05:29:14.860Z,1026.93
2017-04-20T05:30:16.281Z,1026.93
2017-04-20T05:31:17.699Z,1026.92
2017-04-20T05:32:19.119Z,1026.95
2017-04-20T05:33:20.542Z,1026.93
2017-04-20T05:34:21.959Z,1026.98
2017-04-20T05:35:23.392Z,1027.00
2017-04-20T05:36:24.817Z,1027.00
2017-04-20T05:37:26.233Z,1027.00
2017-04-20T05:38:27.659Z,1027.03
2017-04-20T05:39:29.079Z,1027.05
2017-04-20T05:40:30.506Z,1027.08
2017-04-20T05:41:31.934Z,1027.04
2017-04-20T05:42:33.349Z,1027.02
2017-04-20T05:43:34.773Z,1027.06
2017-04-20T05:44:36.191Z,1027.02
2017-04-20T05:45:37.611Z,1027.01
2017-04-20T05:46:39.028Z,1027.05
2017-04-20T05:47:40.448Z,1027.02
2017-04-20T05:48:41.876Z,1027.02
2017-04-20T05:49:43.303Z,1027.06
2017-04-20T05:50:44.723Z,1027.05
2017-04-20T05:51:46.152Z,1027.08
2017-04-20T05:52:47.569Z,1027.10
2017-04-20T05:53:48.992Z,1027.11
2017-04-20T05:54:50.405Z,1027.07
2017-04-20T05:55:51.832Z,1027.07
2017-04-20T05:56:53.255Z,1027.05
2017-04-20T05:57:54.678Z,1027.06
2017-04-20T05:58:56.103Z,1027.08
2017-04-20T05:59:57.521Z,1027.11
2017-04-20T06:00:58.938Z,1027.09
2017-04-20T06:02:00.351Z,1027.07
2017-04-20T06:03:01.775Z,1027.11
2017-04-20T06:04:03.196Z,1027.14
2017-04-20T06:05:04.615Z,1027.13
2017-04-20T06:06:06.034Z,1027.10
2017-04-20T06:07:07.459Z,1027.17
2017-04-20T06:08:08.878Z,1027.14
2017-04-20T06:09:10.296Z,1027.10
2017-04-20T06:10:11.713Z,1027.14
2017-04-20T06:11:13.133Z,1027.18
2017-04-20T06:12:14.561Z,1027.14
2017-04-20T06:13:15.986Z,1027.15
2017-04-20T06:14:17.407Z,1027.13
2017-04-20T06:15:18.828Z,1027.14
2017-04-20T06:16:20.261Z,1027.15
2017-04-20T06:17:21.682Z,1027.11
2017-04-20T06:18:23.100Z,1027.16
2017-04-20T06:19:24.518Z,1027.17
2017-04-20T06:20:25.936Z,1027.10
2017-04-20T06:21:27.353Z,1027.14
2017-04-20T06:22:28.774Z,1027.12
2017-04-20T06:23:30.195Z,1027.11
2017-04-20T06:24:31.614Z,1027.15
2017-04-20T06:25:33.039Z,1027.14
2017-04-20T06:26:34.470Z,1027.17
2017-04-20T06:27:35.888Z,1027.19
2017-04-20T06:28:37.306Z,1027.22
2017-04-20T06:29:38.724Z,1027.22
2017-04-20T06:30:40.148Z,1027.23
2017-04-20T06:31:41.576Z,1027.19
2017-04-20T06:32:43.003Z,1027.19
2017-04-20T06:33:44.426Z,1027.16
2017-04-20T06:34:45.841Z,1027.21
2017-04-20T06:35:47.265Z,1027.20
2017-04-20T06:36:48.678Z,1027.20
2017-04-20T06:37:50.105Z,1027.20
2017-04-20T06:38:51.525Z,1027.26
2017-04-20T06:39:52.951Z,1027.23
2017-04-20T06:40:54.375Z,1027.26
2017-04-20T06:41:55.852Z,1027.24
2017-04-20T06:42:57.271Z,1027.27
2017-04-20T06:43:58.694Z,1027.32
2017-04-20T06:45:00.215Z,1027.29
2017-04-20T06:46:01.659Z,1027.34
2017-04-20T06:47:03.077Z,1027.31
2017-04-20T06:48:04.510Z,1027.36
2017-04-20T06:49:05.979Z,1027.35
2017-04-20T06:50:07.401Z,1027.39
2017-04-20T06:51:08.826Z,1027.37
2017-04-20T06:52:10.256Z,1027.35
2017-04-20T06:53:11.777Z,1027.34
2017-04-20T06:54:13.206Z,1027.31
2017-04-20T06:55:14.641Z,1027.33
2017-04-20T06:56:16.063Z,1027.36
2017-04-20T06:57:17.498Z,1027.33
2017-04-20T06:58:18.918Z,1027.34
2017-04-20T06:59:20.303Z,1027.36
2017-04-20T07:00:21.732Z,1027.33
2017-04-20T07:01:23.152Z,1027.38
2017-04-20T07:02:24.575Z,1027.37
2017-04-20T07:03:26.007Z,1027.35
2017-04-20T07:04:27.432Z,1027.37
2017-04-20T07:05:28.856Z,1027.35
2017-04-20T07:06:30.293Z,1027.35
2017-04-20T07:07:31.715Z,1027.35
2017-04-20T07:08:33.139Z,1027.35
2017-04-20T07:09:34.565Z,1027.38
2017-04-20T07:10:35.984Z,1027.34
2017-04-20T07:11:37.406Z,1027.37
2017-04-20T07:12:38.829Z,1027.36
2017-04-20T07:13:40.253Z,1027.35
2017-04-20T07:14:41.677Z,1027.32
2017-04-20T07:15:43.103Z,1027.32
2017-04-20T07:16:44.525Z,1027.31
2017-04-20T07:17:45.954Z,1027.33
2017-04-20T07:18:47.389Z,1027.31
2017-04-20T07:19:48.815Z,1027.30
2017-04-20T07:20:50.243Z,1027.36
2017-04-20T07:21:51.668Z,1027.29
2017-04-20T07:22:53.093Z,1027.32
2017-04-20T07:23:54.521Z,1027.32
2017-04-20T07:24:55.957Z,1027.34
2017-04-20T07:25:57.376Z,1027.29
2017-04-20T07:26:58.804Z,1027.29
2017-04-20T07:28:00.232Z,1027.31
2017-04-20T07:29:01.665Z,1027.28
2017-04-20T07:30:03.087Z,1027.32
2017-04-20T07:31:04.517Z,1027.32
2017-04-20T07:32:05.938Z,1027.36
2017-04-20T07:33:07.366Z,1027.35
2017-04-20T07:34:08.793Z,1027.38
2017-04-20T07:35:10.222Z,1027.35
2017-04-20T07:36:11.645Z,1027.35
2017-04-20T07:37:13.066Z,1027.33
2017-04-20T07:38:14.488Z,1027.42
2017-04-20T07:39:15.919Z,1027.37
2017-04-20T07:40:17.347Z,1027.37
2017-04-20T07:41:18.773Z,1027.35
2017-04-20T07:42:20.195Z,1027.35
2017-04-20T07:43:21.617Z,1027.38
2017-04-20T07:44:23.045Z,1027.39
2017-04-20T07:45:24.479Z,1027.35
2017-04-20T07:46:25.916Z,1027.37
2017-04-20T07:47:27.348Z,1027.36
2017-04-20T07:48:28.774Z,1027.35
2017-04-20T07:49:30.204Z,1027.39
2017-04-20T07:50:31.641Z,1027.33
2017-04-20T07:51:33.074Z,1027.35
2017-04-20T07:52:34.501Z,1027.36
2017-04-20T07:53:35.928Z,1027.36
2017-04-20T07:54:37.363Z,1027.31
2017-04-20T07:55:38.795Z,1027.35
2017-04-20T07:56:40.231Z,1027.32
2017-04-20T07:57:41.668Z,1027.30
2017-04-20T07:58:43.084Z,1027.30
2017-04-20T07:59:44.513Z,1027.38
2017-04-20T08:00:45.932Z,1027.35
2017-04-20T08:01:47.318Z,1027.30
2017-04-20T08:02:48.746Z,1027.29
2017-04-20T08:03:50.175Z,1027.28
2017-04-20T08:04:51.600Z,1027.27
2017-04-20T08:05:53.032Z,1027.25
2017-04-20T08:06:54.458Z,1027.26
2017-04-20T08:07:55.889Z,1027.28
2017-04-20T08:08:57.310Z,1027.24
2017-04-20T08:09:58.733Z,1027.26
2017-04-20T08:11:00.163Z,1027.28
2017-04-20T08:12:01.596Z,1027.27
2017-04-20T08:13:03.022Z,1027.26
2017-04-20T08:14:04.456Z,1027.25
2017-04-20T08:15:05.885Z,1027.30
2017-04-20T08:16:07.315Z,1027.24
2017-04-20T08:17:08.744Z,1027.26
2017-04-20T08:18:10.177Z,1027.25
2017-04-20T08:19:11.602Z,1027.31
2017-04-20T08:20:13.026Z,1027.32
2017-04-20T08:21:14.459Z,1027.33
2017-04-20T08:22:15.883Z,1027.32
2017-04-20T08:23:17.266Z,1027.33
2017-04-20T08:24:18.698Z,1027.37
2017-04-20T08:25:20.126Z,1027.31
2017-04-20T08:26:21.550Z,1027.34
2017-04-20T08:27:22.980Z,1027.35
2017-04-20T08:28:24.408Z,1027.36
2017-04-20T08:29:25.833Z,1027.35
2017-04-20T08:30:27.279Z,1027.38
2017-04-20T08:31:28.712Z,1027.36
2017-04-20T08:32:30.140Z,1027.36
2017-04-20T08:33:31.563Z,1027.40
2017-04-20T08:34:33.002Z,1027.39
2017-04-20T08:35:34.642Z,1027.38
2017-04-20T08:36:36.071Z,1027.39
2017-04-20T08:37:37.495Z,1027.38
2017-04-20T08:38:38.919Z,1027.39
2017-04-20T08:39:40.351Z,1027.38
2017-04-20T08:40:41.783Z,1027.42
2017-04-20T08:41:43.202Z,1027.38
2017-04-20T08:42:44.638Z,1027.37
2017-04-20T08:43:46.067Z,1027.37
2017-04-20T08:44:47.497Z,1027.38
2017-04-20T08:45:48.936Z,1027.35
2017-04-20T08:46:50.364Z,1027.44
2017-04-20T08:47:51.793Z,1027.42
2017-04-20T08:48:53.224Z,1027.47
2017-04-20T08:49:54.659Z,1027.44
2017-04-20T08:50:56.081Z,1027.39
2017-04-20T08:51:57.510Z,1027.43
2017-04-20T08:52:58.944Z,1027.42
2017-04-20T08:54:00.380Z,1027.39
2017-04-20T08:55:01.809Z,1027.44
2017-04-20T08:56:03.234Z,1027.40
2017-04-20T08:57:04.663Z,1027.44
2017-04-20T08:58:06.095Z,1027.36
2017-04-20T08:59:07.521Z,1027.37
2017-04-20T09:00:08.951Z,1027.37
2017-04-20T09:01:10.384Z,1027.40
2017-04-20T09:02:11.810Z,1027.39
2017-04-20T09:03:13.246Z,1027.38
2017-04-20T09:04:14.625Z,1027.40
2017-04-20T09:05:16.061Z,1027.36
2017-04-20T09:06:17.488Z,1027.35
2017-04-20T09:07:18.915Z,1027.32
2017-04-20T09:08:20.342Z,1027.30
2017-04-20T09:09:21.802Z,1027.28
2017-04-20T09:10:23.278Z,1027.29
2017-04-20T09:11:24.703Z,1027.28
2017-04-20T09:12:26.223Z,1027.26
2017-04-20T09:13:27.646Z,1027.26
2017-04-20T09:14:29.084Z,1027.21
2017-04-20T09:15:30.513Z,1027.15
2017-04-20T09:16:31.959Z,1027.15
2017-04-20T09:17:33.382Z,1027.20
2017-04-20T09:18:34.811Z,1027.13
2017-04-20T09:19:36.238Z,1027.17
2017-04-20T09:20:37.675Z,1027.24
2017-04-20T09:21:39.101Z,1027.20
2017-04-20T09:22:40.530Z,1027.22
2017-04-20T09:23:42.068Z,1027.23
2017-04-20T09:24:43.500Z,1027.18
2017-04-20T09:25:44.930Z,1027.16
2017-04-20T09:26:46.351Z,1027.19
2017-04-20T09:27:47.780Z,1027.19
2017-04-20T09:28:49.217Z,1027.16
2017-04-20T09:29:50.653Z,1027.19
2017-04-20T09:30:52.081Z,1027.21
2017-04-20T09:31:53.501Z,1027.14
2017-04-20T09:32:54.934Z,1027.17
2017-04-20T09:33:56.362Z,1027.15
2017-04-20T09:34:57.790Z,1027.18
2017-04-20T09:35:59.219Z,1027.13
2017-04-20T09:37:00.657Z,1027.16
2017-04-20T09:38:02.081Z,1027.16
2017-04-20T09:39:03.512Z,1027.16
2017-04-20T09:40:04.936Z,1027.15
2017-04-20T09:41:06.368Z,1027.13
2017-04-20T09:42:07.800Z,1027.14
2017-04-20T09:43:09.233Z,1027.15
2017-04-20T09:44:10.663Z,1027.13
2017-04-20T09:45:12.096Z,1027.09
2017-04-20T09:46:13.522Z,1027.10
2017-04-20T09:47:14.958Z,1027.07
2017-04-20T09:48:16.388Z,1027.10
2017-04-20T09:49:17.819Z,1027.11
2017-04-20T09:50:19.239Z,1027.10
2017-04-20T09:51:20.668Z,1027.09
2017-04-20T09:52:22.099Z,1027.11
2017-04-20T09:53:23.528Z,1027.08
2017-04-20T09:54:24.960Z,1027.09
2017-04-20T09:55:26.391Z,1027.06
2017-04-20T09:56:27.815Z,1027.10
2017-04-20T09:57:29.255Z,1027.04
2017-04-20T09:58:30.679Z,1027.03
2017-04-20T09:59:32.112Z,1027.03
2017-04-20T10:00:33.547Z,1027.05
2017-04-20T10:01:34.975Z,1027.04
2017-04-20T10:02:36.424Z,1027.09
2017-04-20T10:03:37.849Z,1027.10
2017-04-20T10:04:39.288Z,1027.06
2017-04-20T10:05:40.724Z,1027.10
2017-04-20T10:06:42.157Z,1027.14
2017-04-20T10:07:43.587Z,1027.13
2017-04-20T10:08:45.014Z,1027.18
2017-04-20T10:09:46.447Z,1027.16
2017-04-20T10:10:47.879Z,1027.15
2017-04-20T10:11:49.308Z,1027.20
2017-04-20T10:12:50.734Z,1027.15
2017-04-20T10:13:52.171Z,1027.17
2017-04-20T10:14:53.603Z,1027.17
2017-04-20T10:15:55.033Z,1027.17
2017-04-20T10:16:56.466Z,1027.12
2017-04-20T10:17:57.898Z,1027.09
2017-04-20T10:18:59.337Z,1027.10
2017-04-20T10:20:00.767Z,1027.13
2017-04-20T10:21:02.193Z,1027.16
2017-04-20T10:22:03.626Z,1027.18
2017-04-20T10:23:05.058Z,1027.14
2017-04-20T10:24:06.498Z,1027.14
2017-04-20T10:25:07.925Z,1027.12
2017-04-20T10:26:09.355Z,1027.11
2017-04-20T10:27:11.959Z,1027.12
2017-04-20T10:28:13.388Z,1027.12
2017-04-20T10:29:14.820Z,1027.13
2017-04-20T10:30:16.256Z,1027.10
2017-04-20T10:31:17.685Z,1027.08
2017-04-20T10:32:19.112Z,1027.06
2017-04-20T10:33:20.552Z,1027.12
2017-04-20T10:34:21.986Z,1027.08
2017-04-20T10:35:23.417Z,1027.08
2017-04-20T10:36:24.854Z,1027.11
2017-04-20T10:37:26.301Z,1027.04
2017-04-20T10:38:27.745Z,1027.04
2017-04-20T10:39:29.177Z,1027.02
2017-04-20T10:40:30.607Z,1027.02
2017-04-20T10:41:32.033Z,1027.04
2017-04-20T10:42:33.462Z,1026.97
2017-04-20T10:43:34.900Z,1026.97
2017-04-20T10:44:36.337Z,1026.94
2017-04-20T10:45:37.766Z,1026.94
2017-04-20T10:46:39.204Z,1026.96
2017-04-20T10:47:40.639Z,1026.94
2017-04-20T10:48:42.074Z,1026.96
2017-04-20T10:49:43.500Z,1026.96
2017-04-20T10:50:44.950Z,1026.90
2017-04-20T10:51:46.374Z,1026.97
2017-04-20T10:52:47.804Z,1026.92
2017-04-20T10:53:49.235Z,1026.92
2017-04-20T10:54:50.671Z,1026.96
2017-04-20T10:55:52.108Z,1027.02
2017-04-20T10:56:53.582Z,1026.96
2017-04-20T10:57:55.016Z,1026.96
2017-04-20T10:58:56.444Z,1026.89
2017-04-20T10:59:57.911Z,1026.86
2017-04-20T11:00:59.346Z,1026.91
2017-04-20T11:02:00.782Z,1026.92
2017-04-20T11:03:02.226Z,1026.89
2017-04-20T11:04:03.658Z,1026.89
2017-04-20T11:05:05.084Z,1026.88
2017-04-20T11:06:06.518Z,1026.88
2017-04-20T11:07:07.957Z,1026.86
2017-04-20T11:08:09.390Z,1026.83
2017-04-20T11:09:10.824Z,1026.85
2017-04-20T11:10:12.253Z,1026.81
2017-04-20T11:11:13.694Z,1026.83
2017-04-20T11:12:15.129Z,1026.88
2017-04-20T11:13:16.557Z,1026.79
2017-04-20T11:14:17.990Z,1026.78
2017-04-20T11:15:19.426Z,1026.81
2017-04-20T11:16:20.861Z,1026.73
2017-04-20T11:17:22.303Z,1026.77
2017-04-20T11:18:23.808Z,1026.68
2017-04-20T11:19:25.238Z,1026.64
2017-04-20T11:20:26.670Z,1026.65
2017-04-20T11:21:28.167Z,1026.63
2017-04-20T11:22:29.599Z,1026.65
2017-04-20T11:23:31.036Z,1026.63
2017-04-20T11:24:32.467Z,1026.68
2017-04-20T11:25:33.892Z,1026.73
2017-04-20T11:26:35.328Z,1026.69
2017-04-20T11:27:36.773Z,1026.65
2017-04-20T11:28:38.201Z,1026.58
2017-04-20T11:29:39.636Z,1026.71
2017-04-20T11:30:41.066Z,1026.66
2017-04-20T11:31:42.498Z,1026.64
2017-04-20T11:32:43.931Z,1026.64
2017-04-20T11:33:45.371Z,1026.62
2017-04-20T11:34:46.800Z,1026.62
2017-04-20T11:35:48.240Z,1026.64
2017-04-20T11:36:49.680Z,1026.66
2017-04-20T11:37:51.122Z,1026.62
2017-04-20T11:38:52.559Z,1026.67
2017-04-20T11:39:53.990Z,1026.62
2017-04-20T11:40:55.431Z,1026.59
2017-04-20T11:41:56.860Z,1026.59
2017-04-20T11:42:58.288Z,1026.55
2017-04-20T11:43:59.732Z,1026.52
2017-04-20T11:45:01.174Z,1026.49
2017-04-20T11:46:02.611Z,1026.51
2017-04-20T11:47:04.050Z,1026.51
2017-04-20T11:48:05.489Z,1026.48
2017-04-20T11:49:06.913Z,1026.47
2017-04-20T11:50:08.347Z,1026.47
2017-04-20T11:51:09.785Z,1026.51
2017-04-20T11:52:11.243Z,1026.53
2017-04-20T11:53:12.673Z,1026.56
2017-04-20T11:54:14.110Z,1026.50
2017-04-20T11:55:15.544Z,1026.50
2017-04-20T11:56:16.980Z,1026.48
2017-04-20T11:57:18.423Z,1026.44
2017-04-20T11:58:19.855Z,1026.45
2017-04-20T11:59:21.287Z,1026.45
2017-04-20T12:00:22.729Z,1026.38
2017-04-20T12:01:24.162Z,1026.39
2017-04-20T12:02:26.481Z,1026.38
2017-04-20T12:03:27.918Z,1026.37
2017-04-20T12:04:29.368Z,1026.38
2017-04-20T12:05:30.799Z,1026.35
2017-04-20T12:06:32.236Z,1026.35
2017-04-20T12:07:33.663Z,1026.36
2017-04-20T12:08:35.091Z,1026.40
2017-04-20T12:09:36.551Z,1026.38
2017-04-20T12:10:37.992Z,1026.32
2017-04-20T12:11:39.414Z,1026.40
2017-04-20T12:12:40.843Z,1026.37
2017-04-20T12:13:42.278Z,1026.34
2017-04-20T12:14:43.715Z,1026.36
2017-04-20T12:15:45.148Z,1026.35
2017-04-20T12:16:46.574Z,1026.38
2017-04-20T12:17:48.007Z,1026.29
2017-04-20T12:18:49.441Z,1026.23
2017-04-20T12:19:50.875Z,1026.29
2017-04-20T12:20:52.332Z,1026.26
2017-04-20T12:21:53.698Z,1026.22
2017-04-20T12:22:55.125Z,1026.23
2017-04-20T12:23:56.557Z,1026.22
2017-04-20T12:24:57.987Z,1026.23
2017-04-20T12:25:59.418Z,1026.23
2017-04-20T12:27:00.849Z,1026.19
2017-04-20T12:28:02.281Z,1026.12
2017-04-20T12:29:03.719Z,1026.13
2017-04-20T12:30:05.144Z,1026.13
2017-04-20T12:31:06.578Z,1026.14
2017-04-20T12:32:08.003Z,1026.14
2017-04-20T12:33:09.441Z,1026.15
2017-04-20T12:34:10.876Z,1026.13
2017-04-20T12:35:12.311Z,1026.14
2017-04-20T12:36:13.742Z,1026.10
2017-04-20T12:37:15.181Z,1026.06
2017-04-20T12:38:16.613Z,1026.05
2017-04-20T12:39:18.046Z,1026.06
2017-04-20T12:40:19.497Z,1026.05
2017-04-20T12:41:20.912Z,1026.02
2017-04-20T12:42:22.342Z,1025.99
2017-04-20T12:43:23.775Z,1025.98
2017-04-20T12:44:25.202Z,1025.96
2017-04-20T12:45:26.635Z,1025.99
2017-04-20T12:46:28.070Z,1025.97
2017-04-20T12:47:29.510Z,1025.96
2017-04-20T12:48:30.940Z,1025.96
2017-04-20T12:49:32.370Z,1025.95
2017-04-20T12:50:33.812Z,1025.97
2017-04-20T12:51:35.242Z,1025.94
2017-04-20T12:52:36.685Z,1025.94
2017-04-20T12:53:38.112Z,1025.89
2017-04-20T12:54:39.557Z,1025.89
2017-04-20T12:55:40.985Z,1025.83
2017-04-20T12:56:42.420Z,1025.85
2017-04-20T12:57:43.853Z,1025.81
2017-04-20T12:58:45.287Z,1025.81
2017-04-20T12:59:46.715Z,1025.78
2017-04-20T13:00:48.307Z,1025.75
2017-04-20T13:01:49.737Z,1025.73
2017-04-20T13:02:51.170Z,1025.72
2017-04-20T13:03:52.609Z,1025.75
2017-04-20T13:04:54.039Z,1025.77
2017-04-20T13:05:55.508Z,1025.70
2017-04-20T13:06:56.940Z,1025.66
2017-04-20T13:07:58.375Z,1025.63
2017-04-20T13:08:59.814Z,1025.59
2017-04-20T13:10:01.247Z,1025.60
2017-04-20T13:11:02.680Z,1025.63
2017-04-20T13:12:04.114Z,1025.58
2017-04-20T13:13:05.511Z,1025.58
2017-04-20T13:14:06.956Z,1025.61
2017-04-20T13:15:08.403Z,1025.61
2017-04-20T13:16:09.838Z,1025.58
2017-04-20T13:17:11.305Z,1025.61
2017-04-20T13:18:12.742Z,1025.58
2017-04-20T13:19:14.260Z,1025.61
2017-04-20T13:20:15.677Z,1025.60
2017-04-20T13:21:17.107Z,1025.53
2017-04-20T13:22:18.536Z,1025.51
2017-04-20T13:23:19.972Z,1025.48
2017-04-20T13:24:21.496Z,1025.51
2017-04-20T13:25:22.921Z,1025.48
2017-04-20T13:26:24.360Z,1025.52
2017-04-20T13:27:25.811Z,1025.49
2017-04-20T13:28:27.252Z,1025.47
2017-04-20T13:29:28.682Z,1025.45
2017-04-20T13:30:30.114Z,1025.44
2017-04-20T13:31:31.548Z,1025.41
2017-04-20T13:32:32.996Z,1025.40
2017-04-20T13:33:34.382Z,1025.53
2017-04-20T13:34:35.821Z,1025.52
2017-04-20T13:35:37.263Z,1025.64
2017-04-20T13:36:38.687Z,1025.65
2017-04-20T13:37:40.136Z,1025.44
2017-04-20T13:38:41.602Z,1025.32
2017-04-20T13:39:43.030Z,1025.32
2017-04-20T13:40:44.464Z,1025.34
2017-04-20T13:41:45.917Z,1025.25
2017-04-20T13:42:47.381Z,1025.33
2017-04-20T13:43:48.833Z,1025.25
2017-04-20T13:44:50.265Z,1025.21
2017-04-20T13:45:51.720Z,1025.15
2017-04-20T13:46:53.144Z,1025.18
2017-04-20T13:47:54.594Z,1025.19
2017-04-20T13:48:56.033Z,1025.12
2017-04-20T13:49:57.477Z,1025.11
2017-04-20T13:50:58.905Z,1025.09
2017-04-20T13:52:00.338Z,1025.03
2017-04-20T13:53:01.769Z,1025.09
2017-04-20T13:54:03.205Z,1025.03
2017-04-20T13:55:04.646Z,1024.99
2017-04-20T13:56:06.086Z,1025.02
2017-04-20T13:57:07.521Z,1025.01
2017-04-20T13:58:08.957Z,1024.97
2017-04-20T13:59:10.392Z,1024.94
2017-04-20T14:00:11.822Z,1024.95
2017-04-20T14:01:13.256Z,1024.95
2017-04-20T14:02:14.694Z,1024.90
2017-04-20T14:03:16.126Z,1024.90
2017-04-20T14:04:17.517Z,1024.88
2017-04-20T14:05:18.950Z,1024.86
2017-04-20T14:06:20.384Z,1024.86
2017-04-20T14:07:21.816Z,1024.80
2017-04-20T14:08:23.247Z,1024.84
2017-04-20T14:09:24.679Z,1024.81
2017-04-20T14:10:26.119Z,1024.79
2017-04-20T14:11:27.548Z,1024.73
2017-04-20T14:12:28.983Z,1024.72
2017-04-20T14:13:30.419Z,1024.76
2017-04-20T14:14:31.858Z,1024.74
2017-04-20T14:15:33.299Z,1024.74
2017-04-20T14:16:34.737Z,1024.78
2017-04-20T14:17:36.185Z,1024.78
2017-04-20T14:18:37.614Z,1024.78
2017-04-20T14:19:39.039Z,1024.75
2017-04-20T14:20:40.480Z,1024.78
2017-04-20T14:21:41.911Z,1024.76
2017-04-20T14:22:43.346Z,1024.73
2017-04-20T14:23:44.790Z,1024.72
2017-04-20T14:24:46.225Z,1024.66
2017-04-20T14:25:47.668Z,1024.59
2017-04-20T14:26:49.114Z,1024.61
2017-04-20T14:27:50.549Z,1024.65
2017-04-20T14:28:51.986Z,1024.59
2017-04-20T14:29:53.429Z,1024.62
2017-04-20T14:30:54.854Z,1024.58
2017-04-20T14:31:56.287Z,1024.53
2017-04-20T14:32:57.714Z,1024.56
2017-04-20T14:33:59.149Z,1024.58
2017-04-20T14:35:00.580Z,1024.52
2017-04-20T14:36:02.013Z,1024.53
2017-04-20T14:37:03.449Z,1024.49
2017-04-20T14:38:04.886Z,1024.51
2017-04-20T14:39:06.317Z,1024.44
2017-04-20T14:40:07.748Z,1024.46
2017-04-20T14:41:09.181Z,1024.45
2017-04-20T14:42:10.612Z,1024.44
2017-04-20T14:43:12.040Z,1024.50
2017-04-20T14:44:13.486Z,1024.41
2017-04-20T14:45:15.580Z,1024.40
2017-04-20T14:46:17.017Z,1024.41
2017-04-20T14:47:18.457Z,1024.41
2017-04-20T14:48:19.900Z,1024.35
2017-04-20T14:49:21.331Z,1024.37
2017-04-20T14:50:22.771Z,1024.38
2017-04-20T14:51:24.225Z,1024.37
2017-04-20T14:52:25.661Z,1024.36
2017-04-20T14:53:27.099Z,1024.33
2017-04-20T14:54:28.523Z,1024.31
2017-04-20T14:55:30.019Z,1024.35
2017-04-20T14:56:32.440Z,1024.32
2017-04-20T14:57:33.881Z,1024.30
2017-04-20T14:58:35.314Z,1024.32
2017-04-20T14:59:37.625Z,1024.29
2017-04-20T15:00:39.062Z,1024.34
2017-04-20T15:01:40.489Z,1024.28
2017-04-20T15:02:41.993Z,1024.25
2017-04-20T15:03:43.415Z,1024.25
2017-04-20T15:04:44.855Z,1024.22
2017-04-20T15:05:46.289Z,1024.19
2017-04-20T15:06:47.734Z,1024.23
2017-04-20T15:07:49.166Z,1024.20
2017-04-20T15:08:50.598Z,1024.17
2017-04-20T15:09:52.038Z,1024.13
2017-04-20T15:10:53.601Z,1024.15
2017-04-20T15:11:55.037Z,1024.21
2017-04-20T15:12:56.467Z,1024.17
2017-04-20T15:13:57.935Z,1024.19
2017-04-20T15:14:59.366Z,1024.13
2017-04-20T15:16:00.754Z,1024.13
2017-04-20T15:17:02.283Z,1024.16
2017-04-20T15:18:03.719Z,1024.15
2017-04-20T15:19:05.156Z,1024.18
2017-04-20T15:20:06.597Z,1024.15
2017-04-20T15:21:08.035Z,1024.19
2017-04-20T15:22:09.459Z,1024.12
2017-04-20T15:23:10.898Z,1024.12
2017-04-20T15:24:12.329Z,1024.13
2017-04-20T15:25:13.793Z,1024.03
2017-04-20T15:26:15.225Z,1024.11
2017-04-20T15:27:16.660Z,1024.03
2017-04-20T15:28:18.147Z,1024.02
2017-04-20T15:29:19.581Z,1024.01
2017-04-20T15:30:21.014Z,1024.09
2017-04-20T15:31:22.447Z,1024.01
2017-04-20T15:32:23.884Z,1023.98
2017-04-20T15:33:25.313Z,1023.97
2017-04-20T15:34:26.751Z,1024.03